This is the latest recevied weather packets stored in our database for station/object YD2CLX-11. If no packets are shown the sender has not sent any weather packets the latest 10 day(s).
| Time | Temp. | Humidity | Pressure | Rain* | Wind** | Luminosity | Snow |
|---|---|---|---|---|---|---|---|
| 1778332184 | 23.89° C | 77% | 891.3 hPa | - | - | - | - |
| 1778331584 | 23.89° C | 77% | 891.1 hPa | - | - | - | - |
| 1778330984 | 23.89° C | 78% | 891 hPa | - | - | - | - |
| 1778330384 | 23.89° C | 78% | 890.9 hPa | - | - | - | - |
| 1778329783 | 23.89° C | 77% | 890.8 hPa | - | - | - | - |
| 1778329183 | 24.44° C | 77% | 890.8 hPa | - | - | - | - |
| 1778328583 | 23.89° C | 78% | 890.6 hPa | - | - | - | - |
| 1778327983 | 24.44° C | 77% | 890.5 hPa | - | - | - | - |
| 1778327383 | 24.44° C | 77% | 890.3 hPa | - | - | - | - |
| 1778326783 | 24.44° C | 78% | 890.1 hPa | - | - | - | - |
| 1778326183 | 23.89° C | 80% | 890.1 hPa | - | - | - | - |
| 1778325583 | 23.89° C | 80% | 890 hPa | - | - | - | - |
| 1778324983 | 24.44° C | 78% | 889.9 hPa | - | - | - | - |
| 1778324383 | 24.44° C | 78% | 889.9 hPa | - | - | - | - |
| 1778323783 | 24.44° C | 78% | 889.7 hPa | - | - | - | - |
| 1778323183 | 24.44° C | 80% | 889.6 hPa | - | - | - | - |
| 1778322582 | 23.89° C | 82% | 889.6 hPa | - | - | - | - |
| 1778321982 | 23.33° C | 85% | 889.4 hPa | - | - | - | - |
| 1778321382 | 22.78° C | 85% | 889.3 hPa | - | - | - | - |
| 1778320782 | 23.33° C | 82% | 889.1 hPa | - | - | - | - |
| 1778320182 | 23.33° C | 83% | 889 hPa | - | - | - | - |
| 1778319582 | 23.89° C | 81% | 889.1 hPa | - | - | - | - |
| 1778318982 | 24.44° C | 78% | 888.8 hPa | - | - | - | - |
| 1778318382 | 24.44° C | 78% | 888.8 hPa | - | - | - | - |
| 1778317782 | 24.44° C | 77% | 888.6 hPa | - | - | - | - |
* Rain since midnight (hover to see other rain measurements)
** Current wind speed in m/s (hover to see current wind gust speed)